createdAt,value
2017-09-10T00:00:05.001Z,13.25
2017-09-10T00:02:40.284Z,13.28
2017-09-10T00:05:14.865Z,13.22
2017-09-10T00:07:50.236Z,13.18
2017-09-10T00:10:25.069Z,13.16
2017-09-10T00:13:00.253Z,13.28
2017-09-10T00:15:34.718Z,13.37
2017-09-10T00:18:10.393Z,13.40
2017-09-10T00:20:44.875Z,13.43
2017-09-10T00:23:19.829Z,13.41
2017-09-10T00:25:54.779Z,13.41
2017-09-10T00:28:29.612Z,13.40
2017-09-10T00:31:04.658Z,13.41
2017-09-10T00:33:39.484Z,13.37
2017-09-10T00:36:14.173Z,13.32
2017-09-10T00:38:49.025Z,13.23
2017-09-10T00:41:23.852Z,13.07
2017-09-10T00:43:58.880Z,13.07
2017-09-10T00:46:33.935Z,12.98
2017-09-10T00:49:08.984Z,12.96
2017-09-10T00:51:43.648Z,12.94
2017-09-10T00:54:17.742Z,12.95
2017-09-10T00:56:53.096Z,12.99
2017-09-10T00:59:27.797Z,12.98
2017-09-10T01:02:02.452Z,12.89
2017-09-10T01:04:37.337Z,12.80
2017-09-10T01:07:12.155Z,12.76
2017-09-10T01:09:47.108Z,12.78
2017-09-10T01:12:21.811Z,12.79
2017-09-10T01:14:56.815Z,12.80
2017-09-10T01:17:31.853Z,12.79
2017-09-10T01:20:06.259Z,12.65
2017-09-10T01:22:41.031Z,12.56
2017-09-10T01:25:16.035Z,12.51
2017-09-10T01:27:51.107Z,12.59
2017-09-10T01:30:25.531Z,12.60
2017-09-10T01:33:00.846Z,12.56
2017-09-10T01:35:35.528Z,12.53
2017-09-10T01:38:10.852Z,12.47
2017-09-10T01:40:45.396Z,12.44
2017-09-10T01:43:20.569Z,12.38
2017-09-10T01:45:54.993Z,12.42
2017-09-10T01:48:29.887Z,12.30
2017-09-10T01:51:04.619Z,12.26
2017-09-10T01:53:39.771Z,12.29
2017-09-10T01:56:14.609Z,12.31
2017-09-10T01:58:49.398Z,12.32
2017-09-10T02:01:24.020Z,12.32
2017-09-10T02:03:58.964Z,12.31
2017-09-10T02:06:34.019Z,12.33
2017-09-10T02:09:08.845Z,12.33
2017-09-10T02:11:44.041Z,12.31
2017-09-10T02:14:19.215Z,12.29
2017-09-10T02:16:54.073Z,12.25
2017-09-10T02:19:28.961Z,12.19
2017-09-10T02:22:03.704Z,12.14
2017-09-10T02:24:38.536Z,12.09
2017-09-10T02:27:13.085Z,12.10
2017-09-10T02:29:47.987Z,12.06
2017-09-10T02:32:22.794Z,12.00
2017-09-10T02:34:57.948Z,12.01
2017-09-10T02:37:32.804Z,11.91
2017-09-10T02:40:07.710Z,11.84
2017-09-10T02:42:42.761Z,11.81
2017-09-10T02:45:17.665Z,11.79
2017-09-10T02:47:52.662Z,11.81
2017-09-10T02:50:27.597Z,11.87
2017-09-10T02:53:02.501Z,11.89
2017-09-10T02:55:37.219Z,11.92
2017-09-10T02:58:12.175Z,11.91
2017-09-10T03:00:46.984Z,11.87
2017-09-10T03:03:21.813Z,11.83
2017-09-10T03:05:56.565Z,11.70
2017-09-10T03:08:31.396Z,11.60
2017-09-10T03:11:06.505Z,11.52
2017-09-10T03:13:41.673Z,11.55
2017-09-10T03:16:16.780Z,11.66
2017-09-10T03:18:51.627Z,11.74
2017-09-10T03:21:26.361Z,11.79
2017-09-10T03:24:01.292Z,11.80
2017-09-10T03:26:36.041Z,11.81
2017-09-10T03:29:11.064Z,11.83
2017-09-10T03:31:45.876Z,11.83
2017-09-10T03:34:20.648Z,11.85
2017-09-10T03:36:55.703Z,11.90
2017-09-10T03:39:30.481Z,11.83
2017-09-10T03:42:05.608Z,11.86
2017-09-10T03:44:40.477Z,11.79
2017-09-10T03:47:15.509Z,11.78
2017-09-10T03:49:50.055Z,11.79
2017-09-10T03:52:24.974Z,11.80
2017-09-10T03:54:59.980Z,11.85
2017-09-10T03:57:34.649Z,11.94
2017-09-10T04:00:09.519Z,12.02
2017-09-10T04:02:44.765Z,11.96
2017-09-10T04:05:19.496Z,11.92
2017-09-10T04:07:54.711Z,11.96
2017-09-10T04:10:29.431Z,11.82
2017-09-10T04:13:04.460Z,11.84
2017-09-10T04:15:39.172Z,11.88
2017-09-10T04:18:13.669Z,11.92
2017-09-10T04:20:48.644Z,11.92
2017-09-10T04:23:22.868Z,11.94
2017-09-10T04:25:58.239Z,11.95
2017-09-10T04:28:32.973Z,11.93
2017-09-10T04:31:07.378Z,11.92
2017-09-10T04:33:42.525Z,11.91
2017-09-10T04:36:17.468Z,11.92
2017-09-10T04:38:52.499Z,11.93
2017-09-10T04:41:27.327Z,11.87
2017-09-10T04:44:01.992Z,11.87
2017-09-10T04:46:38.123Z,11.83
2017-09-10T04:49:12.849Z,11.88
2017-09-10T04:51:47.801Z,11.84
2017-09-10T04:54:22.672Z,11.82
2017-09-10T04:56:57.529Z,11.78
2017-09-10T04:59:32.635Z,11.79
2017-09-10T05:02:07.292Z,11.80
2017-09-10T05:04:41.933Z,11.81
2017-09-10T05:07:16.595Z,11.79
2017-09-10T05:09:51.924Z,11.77
2017-09-10T05:12:26.963Z,11.77
2017-09-10T05:15:01.653Z,11.75
2017-09-10T05:17:36.547Z,11.71
2017-09-10T05:20:11.131Z,11.72
2017-09-10T05:22:46.332Z,11.75
2017-09-10T05:25:20.663Z,11.75
2017-09-10T05:27:55.660Z,11.74
2017-09-10T05:30:30.024Z,11.76
2017-09-10T05:33:05.169Z,11.84
2017-09-10T05:35:40.409Z,11.82
2017-09-10T05:38:15.653Z,11.85
2017-09-10T05:40:50.827Z,11.87
2017-09-10T05:43:25.212Z,11.84
2017-09-10T05:46:00.080Z,11.88
2017-09-10T05:48:34.926Z,11.93
2017-09-10T05:51:09.635Z,11.94
2017-09-10T05:53:44.472Z,11.97
2017-09-10T05:56:19.303Z,12.00
2017-09-10T05:58:54.260Z,12.06
2017-09-10T06:01:29.100Z,12.05
2017-09-10T06:04:04.335Z,12.05
2017-09-10T06:06:38.972Z,12.15
2017-09-10T06:09:14.242Z,12.23
2017-09-10T06:11:50.129Z,12.35
2017-09-10T06:14:25.080Z,12.40
2017-09-10T06:16:59.608Z,12.41
2017-09-10T06:19:34.508Z,12.41
2017-09-10T06:22:09.248Z,12.49
2017-09-10T06:24:44.427Z,12.57
2017-09-10T06:27:19.068Z,12.67
2017-09-10T06:29:55.522Z,12.80
2017-09-10T06:32:29.933Z,12.94
2017-09-10T06:35:04.396Z,13.06
2017-09-10T06:37:39.627Z,12.96
2017-09-10T06:40:14.476Z,12.92
2017-09-10T06:42:49.319Z,12.90
2017-09-10T06:45:24.220Z,12.94
2017-09-10T06:47:58.873Z,12.88
2017-09-10T06:50:33.810Z,12.89
2017-09-10T06:53:08.581Z,12.87
2017-09-10T06:55:43.313Z,12.94
2017-09-10T06:58:19.161Z,13.01
2017-09-10T07:00:54.031Z,13.01
2017-09-10T07:03:28.776Z,13.10
2017-09-10T07:06:03.825Z,13.18
2017-09-10T07:08:38.749Z,13.35
2017-09-10T07:11:13.764Z,13.33
2017-09-10T07:13:48.981Z,13.44
2017-09-10T07:16:23.837Z,13.55
2017-09-10T07:18:58.913Z,13.69
2017-09-10T07:21:33.922Z,13.71
2017-09-10T07:24:08.444Z,13.77
2017-09-10T07:26:43.292Z,13.83
2017-09-10T07:29:18.524Z,13.82
2017-09-10T07:31:54.204Z,13.71
2017-09-10T07:34:29.201Z,13.87
2017-09-10T07:37:04.292Z,13.94
2017-09-10T07:39:39.288Z,14.08
2017-09-10T07:42:14.149Z,14.09
2017-09-10T07:44:48.991Z,14.31
2017-09-10T07:47:24.059Z,14.67
2017-09-10T07:49:58.495Z,15.02
2017-09-10T07:52:33.295Z,15.14
2017-09-10T07:55:07.834Z,15.14
2017-09-10T07:57:42.945Z,15.27
2017-09-10T08:00:17.988Z,15.58
2017-09-10T08:02:52.889Z,15.69
2017-09-10T08:05:27.710Z,15.75
2017-09-10T08:08:03.463Z,15.57
2017-09-10T08:10:38.429Z,15.57
2017-09-10T08:13:12.841Z,15.81
2017-09-10T08:15:47.443Z,16.06
2017-09-10T08:18:22.476Z,16.10
2017-09-10T08:20:57.432Z,16.04
2017-09-10T08:23:32.223Z,16.01
2017-09-10T08:26:07.667Z,15.96
2017-09-10T08:28:42.115Z,15.97
2017-09-10T08:31:17.124Z,15.99
2017-09-10T08:33:51.889Z,16.35
2017-09-10T08:36:26.592Z,16.37
2017-09-10T08:39:01.481Z,16.36
2017-09-10T08:41:36.437Z,16.19
2017-09-10T08:44:11.644Z,16.35
2017-09-10T08:46:46.476Z,16.47
2017-09-10T08:49:21.205Z,16.63
2017-09-10T08:51:56.504Z,16.86
2017-09-10T08:54:31.553Z,16.89
2017-09-10T08:57:06.460Z,17.08
2017-09-10T08:59:41.245Z,17.46
2017-09-10T09:02:16.272Z,17.64
2017-09-10T09:04:51.496Z,17.77
2017-09-10T09:07:26.453Z,18.15
2017-09-10T09:10:01.378Z,18.39
2017-09-10T09:12:36.572Z,18.70
2017-09-10T09:15:11.280Z,18.56
2017-09-10T09:17:46.232Z,18.00
2017-09-10T09:20:21.280Z,18.58
2017-09-10T09:22:56.397Z,18.12
2017-09-10T09:25:31.400Z,18.33
2017-09-10T09:28:06.279Z,18.60
2017-09-10T09:30:41.237Z,18.19
2017-09-10T09:33:16.188Z,18.10
2017-09-10T09:35:51.237Z,17.98
2017-09-10T09:38:26.035Z,17.91
2017-09-10T09:41:01.065Z,17.57
2017-09-10T09:43:36.019Z,17.99
2017-09-10T09:46:11.219Z,18.03
2017-09-10T09:48:45.854Z,17.92
2017-09-10T09:51:20.716Z,18.12
2017-09-10T09:53:54.930Z,18.63
2017-09-10T09:56:29.992Z,18.80
2017-09-10T09:59:05.103Z,18.45
2017-09-10T10:01:39.868Z,18.22
2017-09-10T10:04:14.753Z,18.41
2017-09-10T10:06:49.524Z,18.51
2017-09-10T10:09:24.240Z,18.42
2017-09-10T10:11:59.603Z,18.39
2017-09-10T10:14:34.332Z,18.90
2017-09-10T10:17:09.167Z,19.42
2017-09-10T10:19:44.048Z,19.83
2017-09-10T10:22:18.477Z,20.25
2017-09-10T10:24:53.278Z,19.71
2017-09-10T10:27:28.036Z,19.18
2017-09-10T10:30:03.261Z,18.80
2017-09-10T10:32:37.980Z,18.71
2017-09-10T10:35:12.821Z,19.22
2017-09-10T10:37:47.868Z,19.49
2017-09-10T10:40:22.991Z,19.81
2017-09-10T10:42:58.037Z,19.93
2017-09-10T10:45:33.080Z,20.05
2017-09-10T10:48:08.416Z,20.13
2017-09-10T10:50:43.400Z,19.91
2017-09-10T10:53:18.536Z,19.58
2017-09-10T10:55:53.312Z,19.49
2017-09-10T10:58:28.140Z,19.48
2017-09-10T11:01:03.074Z,20.01
2017-09-10T11:03:38.019Z,20.11
2017-09-10T11:06:12.948Z,20.29
2017-09-10T11:08:47.952Z,20.45
2017-09-10T11:11:22.717Z,20.77
2017-09-10T11:13:57.236Z,21.19
2017-09-10T11:16:31.941Z,20.90
2017-09-10T11:19:06.660Z,21.07
2017-09-10T11:21:41.397Z,21.63
2017-09-10T11:24:16.180Z,21.33
2017-09-10T11:26:51.000Z,21.40
2017-09-10T11:29:25.808Z,21.53
2017-09-10T11:32:00.431Z,21.63
2017-09-10T11:34:35.188Z,21.32
2017-09-10T11:37:10.073Z,21.12
2017-09-10T11:39:44.715Z,21.03
2017-09-10T11:42:19.601Z,20.67
2017-09-10T11:44:54.469Z,20.69
2017-09-10T11:47:29.489Z,20.39
2017-09-10T11:50:04.111Z,20.10
2017-09-10T11:52:38.992Z,20.00
2017-09-10T11:55:13.712Z,19.90
2017-09-10T11:57:48.629Z,19.98
2017-09-10T12:00:23.253Z,19.97
2017-09-10T12:02:58.694Z,20.01
2017-09-10T12:05:33.397Z,19.80
2017-09-10T12:08:08.304Z,19.66
2017-09-10T12:10:43.208Z,19.68
2017-09-10T12:13:18.704Z,19.62
2017-09-10T12:15:53.227Z,19.39
2017-09-10T12:18:28.261Z,19.52
2017-09-10T12:21:04.145Z,19.80
2017-09-10T12:23:38.776Z,20.25
2017-09-10T12:26:13.780Z,20.57
2017-09-10T12:28:48.789Z,21.04
2017-09-10T12:31:23.789Z,21.33
2017-09-10T12:33:58.973Z,21.49
2017-09-10T12:36:33.997Z,21.82
2017-09-10T12:39:08.728Z,22.19
2017-09-10T12:41:43.776Z,21.72
2017-09-10T12:44:18.792Z,21.49
2017-09-10T12:46:53.913Z,21.18
2017-09-10T12:49:28.847Z,21.36
2017-09-10T12:52:03.644Z,21.79
2017-09-10T12:54:38.503Z,21.66
2017-09-10T12:57:13.349Z,21.81
2017-09-10T12:59:47.840Z,21.52
2017-09-10T13:02:22.636Z,21.43
2017-09-10T13:04:57.714Z,21.31
2017-09-10T13:07:32.444Z,21.44
2017-09-10T13:10:07.591Z,21.84
2017-09-10T13:12:42.420Z,22.08
2017-09-10T13:15:17.144Z,22.07
2017-09-10T13:17:51.733Z,21.39
2017-09-10T13:20:26.704Z,21.59
2017-09-10T13:23:01.380Z,22.10
2017-09-10T13:25:36.021Z,21.84
2017-09-10T13:28:10.787Z,21.71
2017-09-10T13:30:45.668Z,21.65
2017-09-10T13:33:20.425Z,21.19
2017-09-10T13:35:55.233Z,21.03
2017-09-10T13:38:30.385Z,21.17
2017-09-10T13:41:04.879Z,21.00
2017-09-10T13:43:39.679Z,21.25
2017-09-10T13:46:14.545Z,21.48
2017-09-10T13:48:49.468Z,21.32
2017-09-10T13:51:24.441Z,21.34
2017-09-10T13:53:59.471Z,21.31
2017-09-10T13:56:34.032Z,21.33
2017-09-10T13:59:09.340Z,21.41
2017-09-10T14:01:44.512Z,21.38
2017-09-10T14:04:20.413Z,21.41
2017-09-10T14:06:55.096Z,21.41
2017-09-10T14:09:29.856Z,21.39
2017-09-10T14:12:04.756Z,21.17
2017-09-10T14:14:39.472Z,21.05
2017-09-10T14:17:14.260Z,20.81
2017-09-10T14:19:49.208Z,20.60
2017-09-10T14:22:24.111Z,20.69
2017-09-10T14:24:58.869Z,20.76
2017-09-10T14:27:33.496Z,20.72
2017-09-10T14:30:08.424Z,20.68
2017-09-10T14:32:43.332Z,20.26
2017-09-10T14:35:17.969Z,20.28
2017-09-10T14:37:52.762Z,20.38
2017-09-10T14:40:27.297Z,20.61
2017-09-10T14:43:01.838Z,20.76
2017-09-10T14:45:36.968Z,20.80
2017-09-10T14:48:11.676Z,20.91
2017-09-10T14:50:46.561Z,20.90
2017-09-10T14:53:21.560Z,20.67
2017-09-10T14:55:56.533Z,20.67
2017-09-10T14:58:31.292Z,20.56
2017-09-10T15:01:06.048Z,20.42
2017-09-10T15:03:40.891Z,20.49
2017-09-10T15:06:15.871Z,20.32
2017-09-10T15:08:50.556Z,20.34
2017-09-10T15:11:25.948Z,20.25
2017-09-10T15:14:01.041Z,20.20
2017-09-10T15:16:36.096Z,20.18
2017-09-10T15:19:10.992Z,20.16
2017-09-10T15:21:45.811Z,20.13
2017-09-10T15:24:20.809Z,20.12
2017-09-10T15:26:55.600Z,20.08
2017-09-10T15:29:30.349Z,20.23
2017-09-10T15:32:05.197Z,20.18
2017-09-10T15:34:40.179Z,20.17
2017-09-10T15:37:15.276Z,20.32
2017-09-10T15:39:49.953Z,20.24
2017-09-10T15:42:24.865Z,19.89
2017-09-10T15:44:59.633Z,19.78
2017-09-10T15:47:34.480Z,19.81
2017-09-10T15:50:09.481Z,19.87
2017-09-10T15:52:44.800Z,19.90
2017-09-10T15:55:19.556Z,19.72
2017-09-10T15:57:54.778Z,19.66
2017-09-10T16:00:29.564Z,19.77
2017-09-10T16:03:04.238Z,19.73
2017-09-10T16:05:39.133Z,19.63
2017-09-10T16:08:14.127Z,19.68
2017-09-10T16:10:48.994Z,19.61
2017-09-10T16:13:23.793Z,19.54
2017-09-10T16:15:58.498Z,19.49
2017-09-10T16:18:33.245Z,19.51
2017-09-10T16:21:08.106Z,19.57
2017-09-10T16:23:44.224Z,19.53
2017-09-10T16:26:18.956Z,19.45
2017-09-10T16:28:53.471Z,19.54
2017-09-10T16:31:28.533Z,19.56
2017-09-10T16:34:03.129Z,19.59
2017-09-10T16:36:38.073Z,19.64
2017-09-10T16:39:12.700Z,19.44
2017-09-10T16:41:47.828Z,19.41
2017-09-10T16:44:22.992Z,19.50
2017-09-10T16:46:58.221Z,19.56
2017-09-10T16:49:32.939Z,19.48
2017-09-10T16:52:07.667Z,19.21
2017-09-10T16:54:42.512Z,19.20
2017-09-10T16:57:18.008Z,19.28
2017-09-10T16:59:52.500Z,19.25
2017-09-10T17:02:27.532Z,19.32
2017-09-10T17:05:02.285Z,19.31
2017-09-10T17:07:36.996Z,19.22
2017-09-10T17:10:11.860Z,19.24
2017-09-10T17:12:46.644Z,19.13
2017-09-10T17:15:21.677Z,19.06
2017-09-10T17:17:56.309Z,19.06
2017-09-10T17:20:31.284Z,19.04
2017-09-10T17:23:05.989Z,19.14
2017-09-10T17:25:40.793Z,19.25
2017-09-10T17:28:15.921Z,19.32
2017-09-10T17:30:50.744Z,19.28
2017-09-10T17:33:25.673Z,19.19
2017-09-10T17:36:00.648Z,19.12
2017-09-10T17:38:35.561Z,18.91
2017-09-10T17:41:10.189Z,18.80
2017-09-10T17:43:45.319Z,18.85
2017-09-10T17:46:20.065Z,18.81
2017-09-10T17:48:54.847Z,18.85
2017-09-10T17:51:29.925Z,18.81
2017-09-10T17:54:04.592Z,18.74
2017-09-10T17:56:39.452Z,18.62
2017-09-10T17:59:14.213Z,18.76
2017-09-10T18:01:49.003Z,18.65
2017-09-10T18:04:23.875Z,18.72
2017-09-10T18:07:00.456Z,18.62
2017-09-10T18:09:35.053Z,18.46
2017-09-10T18:12:09.959Z,18.36
2017-09-10T18:14:45.224Z,18.34
2017-09-10T18:17:19.848Z,18.06
2017-09-10T18:19:54.526Z,18.09
2017-09-10T18:22:29.619Z,18.19
2017-09-10T18:25:04.336Z,18.05
2017-09-10T18:27:39.105Z,17.94
2017-09-10T18:30:14.141Z,17.81
2017-09-10T18:32:48.981Z,17.80
2017-09-10T18:35:23.876Z,17.73
2017-09-10T18:37:58.687Z,17.81
2017-09-10T18:40:33.421Z,17.67
2017-09-10T18:43:08.452Z,17.69
2017-09-10T18:45:43.312Z,17.71
2017-09-10T18:48:18.328Z,17.50
2017-09-10T18:50:52.801Z,17.54
2017-09-10T18:53:27.770Z,17.62
2017-09-10T18:56:02.333Z,17.36
2017-09-10T18:58:37.000Z,17.49
2017-09-10T19:01:11.701Z,17.35
2017-09-10T19:03:46.345Z,17.25
2017-09-10T19:06:21.253Z,17.23
2017-09-10T19:08:56.175Z,17.11
2017-09-10T19:11:30.937Z,17.08
2017-09-10T19:14:05.417Z,17.05
2017-09-10T19:16:40.688Z,17.00
2017-09-10T19:19:16.004Z,17.00
2017-09-10T19:21:50.844Z,16.82
2017-09-10T19:24:25.679Z,16.94
2017-09-10T19:27:00.713Z,16.86
2017-09-10T19:29:35.652Z,16.80
2017-09-10T19:32:10.584Z,16.80
2017-09-10T19:34:45.464Z,16.74
2017-09-10T19:37:20.245Z,16.65
2017-09-10T19:39:55.273Z,16.64
2017-09-10T19:42:29.991Z,16.51
2017-09-10T19:45:04.706Z,16.56
2017-09-10T19:47:39.412Z,16.41
2017-09-10T19:50:14.709Z,16.32
2017-09-10T19:52:49.548Z,16.37
2017-09-10T19:55:24.584Z,16.48
2017-09-10T19:57:59.645Z,16.43
2017-09-10T20:00:34.059Z,16.29
2017-09-10T20:03:08.829Z,16.32
2017-09-10T20:05:43.725Z,16.25
2017-09-10T20:08:18.547Z,16.39
2017-09-10T20:10:53.655Z,16.31
2017-09-10T20:13:28.417Z,16.15
2017-09-10T20:16:03.256Z,16.21
2017-09-10T20:18:37.959Z,16.25
2017-09-10T20:21:12.464Z,16.10
2017-09-10T20:23:47.640Z,16.13
2017-09-10T20:26:22.556Z,16.24
2017-09-10T20:28:57.332Z,16.30
2017-09-10T20:31:32.042Z,16.16
2017-09-10T20:34:07.083Z,16.23
2017-09-10T20:36:41.988Z,16.28
2017-09-10T20:39:16.908Z,16.21
2017-09-10T20:41:51.537Z,16.12
2017-09-10T20:44:26.342Z,16.15
2017-09-10T20:47:01.140Z,16.32
2017-09-10T20:49:36.009Z,16.37
2017-09-10T20:52:10.482Z,16.34
2017-09-10T20:54:45.422Z,16.26
2017-09-10T20:57:20.128Z,16.14
2017-09-10T20:59:55.077Z,16.28
2017-09-10T21:02:29.615Z,16.23
2017-09-10T21:05:04.409Z,16.09
2017-09-10T21:07:40.344Z,16.12
2017-09-10T21:10:15.007Z,16.13
2017-09-10T21:12:50.073Z,16.06
2017-09-10T21:15:24.588Z,16.05
2017-09-10T21:17:59.387Z,16.10
2017-09-10T21:20:34.317Z,16.05
2017-09-10T21:23:08.963Z,16.13
2017-09-10T21:25:43.392Z,16.11
2017-09-10T21:28:17.940Z,16.06
2017-09-10T21:30:52.616Z,16.01
2017-09-10T21:33:27.436Z,16.11
2017-09-10T21:36:02.239Z,16.07
2017-09-10T21:38:37.085Z,16.09
2017-09-10T21:41:12.247Z,16.09
2017-09-10T21:43:47.121Z,16.17
2017-09-10T21:46:21.696Z,16.09
2017-09-10T21:48:56.735Z,16.06
2017-09-10T21:51:31.917Z,16.06
2017-09-10T21:54:06.450Z,16.03
2017-09-10T21:56:41.020Z,16.10
2017-09-10T21:59:16.118Z,15.96
2017-09-10T22:01:50.503Z,16.08
2017-09-10T22:04:25.534Z,15.96
2017-09-10T22:07:00.354Z,15.91
2017-09-10T22:09:35.784Z,15.91
2017-09-10T22:12:10.624Z,16.01
2017-09-10T22:14:45.343Z,16.04
2017-09-10T22:17:20.171Z,16.00
2017-09-10T22:19:54.925Z,15.98
2017-09-10T22:22:29.685Z,15.97
2017-09-10T22:25:04.708Z,15.88
2017-09-10T22:27:39.518Z,16.01
2017-09-10T22:30:14.131Z,16.04
2017-09-10T22:32:48.868Z,16.04
2017-09-10T22:35:23.621Z,16.00
2017-09-10T22:38:41.740Z,15.91
2017-09-10T22:41:17.235Z,15.79
2017-09-10T22:43:51.859Z,15.79
2017-09-10T22:46:26.412Z,15.80
2017-09-10T22:49:01.065Z,15.92
2017-09-10T22:51:35.695Z,15.85
2017-09-10T22:54:10.540Z,15.89
2017-09-10T22:56:45.298Z,15.88
2017-09-10T22:59:20.123Z,15.92
2017-09-10T23:01:55.825Z,15.84
2017-09-10T23:04:30.775Z,15.86
2017-09-10T23:10:10.810Z,15.86
2017-09-10T23:12:45.884Z,15.81
2017-09-10T23:15:20.684Z,15.83
2017-09-10T23:17:55.185Z,15.74
2017-09-10T23:20:30.129Z,15.95
2017-09-10T23:23:04.708Z,15.84
2017-09-10T23:25:39.274Z,15.81
2017-09-10T23:28:14.041Z,15.70
2017-09-10T23:30:49.005Z,15.72
2017-09-10T23:33:23.677Z,15.73
2017-09-10T23:35:58.456Z,15.77
2017-09-10T23:38:33.171Z,15.72
2017-09-10T23:41:08.053Z,15.52
2017-09-10T23:43:42.766Z,15.48
2017-09-10T23:46:17.255Z,15.55
2017-09-10T23:48:52.160Z,15.61
2017-09-10T23:51:26.969Z,15.51
2017-09-10T23:54:01.701Z,15.50
2017-09-10T23:56:36.399Z,15.60
2017-09-10T23:59:11.224Z,15.62
